Walford, Iowa
Current Conditions -  °F | °C
As of 6:52 AM on Saturday 01 Nov 2014 (Local Time) from KCID Reporting Station
Clear Clear  
Wind Chill: 23°   Ceiling: Unl
Heat Index: 23°   Visibility: 10mi
Dew Point: 19°   Wind: 3mph
Humidity: 85%   Direction: 60°ENE
Pressure: 30.47"   Gusts: NA
Location:  41.88°N, 91.83°W
Report Text: KCID 011152Z 06003KT 10SM CLR M05/M07 A3047 RMK AO2 SLP330 T10501072 11028 21078 53004
Loading
Personal Weather Stations






























Interactive Weather Map
Tropical Storm Tracking
New forecast layout! Learn more

10-Day Weather Forecast

Advertisements
Track Severe Weather on mobile